sensor_id;sensor_type;location;lat;lon;timestamp;pressure;altitude;pressure_sealevel;temperature;humidity
21545;BME280;10933;50.754;11.508;2024-02-14T00:01:11;100676.16;;;1.80;100.00
21545;BME280;10933;50.754;11.508;2024-02-14T00:03:37;100687.47;;;1.82;100.00
21545;BME280;10933;50.754;11.508;2024-02-14T00:06:04;100697.44;;;2.20;100.00
21545;BME280;10933;50.754;11.508;2024-02-14T00:08:31;100678.31;;;2.09;100.00
21545;BME280;10933;50.754;11.508;2024-02-14T00:10:57;100675.31;;;2.12;100.00
21545;BME280;10933;50.754;11.508;2024-02-14T00:13:24;100673.13;;;2.23;100.00
21545;BME280;10933;50.754;11.508;2024-02-14T00:15:50;100663.47;;;2.22;100.00
21545;BME280;10933;50.754;11.508;2024-02-14T00:18:17;100658.50;;;2.03;100.00
21545;BME280;10933;50.754;11.508;2024-02-14T00:20:43;100657.38;;;2.05;100.00
21545;BME280;10933;50.754;11.508;2024-02-14T00:23:09;100660.69;;;2.08;100.00
21545;BME280;10933;50.754;11.508;2024-02-14T00:25:37;100665.00;;;2.17;100.00
21545;BME280;10933;50.754;11.508;2024-02-14T00:28:03;100661.50;;;2.00;100.00
21545;BME280;10933;50.754;11.508;2024-02-14T00:30:29;100660.47;;;2.25;100.00
21545;BME280;10933;50.754;11.508;2024-02-14T00:32:56;100643.38;;;2.12;100.00
21545;BME280;10933;50.754;11.508;2024-02-14T00:35:22;100643.50;;;2.26;100.00
21545;BME280;10933;50.754;11.508;2024-02-14T00:37:48;100643.47;;;2.43;100.00
21545;BME280;10933;50.754;11.508;2024-02-14T00:40:14;100623.31;;;2.40;100.00
21545;BME280;10933;50.754;11.508;2024-02-14T00:42:40;100610.47;;;2.52;100.00
21545;BME280;10933;50.754;11.508;2024-02-14T00:45:07;100606.09;;;2.59;100.00
21545;BME280;10933;50.754;11.508;2024-02-14T00:47:35;100584.25;;;2.32;100.00
21545;BME280;10933;50.754;11.508;2024-02-14T00:50:02;100566.25;;;2.34;100.00
21545;BME280;10933;50.754;11.508;2024-02-14T00:52:28;100562.59;;;2.35;100.00
21545;BME280;10933;50.754;11.508;2024-02-14T00:54:55;100562.78;;;2.26;100.00
21545;BME280;10933;50.754;11.508;2024-02-14T00:57:21;100572.63;;;2.25;100.00
21545;BME280;10933;50.754;11.508;2024-02-14T00:59:52;100572.91;;;2.39;100.00
21545;BME280;10933;50.754;11.508;2024-02-14T01:02:18;100569.94;;;2.33;100.00
21545;BME280;10933;50.754;11.508;2024-02-14T01:04:44;100561.06;;;2.41;100.00
21545;BME280;10933;50.754;11.508;2024-02-14T01:07:11;100541.88;;;2.15;100.00
21545;BME280;10933;50.754;11.508;2024-02-14T01:09:37;100553.97;;;2.33;100.00
21545;BME280;10933;50.754;11.508;2024-02-14T01:12:03;100551.31;;;2.25;100.00
21545;BME280;10933;50.754;11.508;2024-02-14T01:14:31;100540.94;;;2.39;100.00
21545;BME280;10933;50.754;11.508;2024-02-14T01:16:57;100538.03;;;2.56;100.00
21545;BME280;10933;50.754;11.508;2024-02-14T01:19:23;100523.31;;;2.38;100.00
21545;BME280;10933;50.754;11.508;2024-02-14T01:21:51;100523.13;;;2.39;100.00
21545;BME280;10933;50.754;11.508;2024-02-14T01:24:17;100520.25;;;2.49;100.00
21545;BME280;10933;50.754;11.508;2024-02-14T01:26:43;100512.53;;;2.31;100.00
21545;BME280;10933;50.754;11.508;2024-02-14T01:29:09;100515.69;;;2.26;100.00
21545;BME280;10933;50.754;11.508;2024-02-14T01:31:36;100519.78;;;2.45;100.00
21545;BME280;10933;50.754;11.508;2024-02-14T01:34:02;100517.88;;;2.31;100.00
21545;BME280;10933;50.754;11.508;2024-02-14T01:36:29;100522.78;;;2.03;100.00
21545;BME280;10933;50.754;11.508;2024-02-14T01:38:55;100537.13;;;1.94;100.00
21545;BME280;10933;50.754;11.508;2024-02-14T01:41:21;100567.16;;;2.19;100.00
21545;BME280;10933;50.754;11.508;2024-02-14T01:43:49;100577.81;;;2.19;100.00
21545;BME280;10933;50.754;11.508;2024-02-14T01:46:15;100584.88;;;2.43;100.00
21545;BME280;10933;50.754;11.508;2024-02-14T01:48:42;100580.84;;;2.47;100.00
21545;BME280;10933;50.754;11.508;2024-02-14T01:51:10;100564.31;;;2.59;100.00
21545;BME280;10933;50.754;11.508;2024-02-14T01:53:37;100547.16;;;2.31;100.00
21545;BME280;10933;50.754;11.508;2024-02-14T01:56:04;100560.75;;;2.44;100.00
21545;BME280;10933;50.754;11.508;2024-02-14T01:58:32;100550.28;;;2.34;100.00
21545;BME280;10933;50.754;11.508;2024-02-14T02:00:59;100556.50;;;2.58;100.00
21545;BME280;10933;50.754;11.508;2024-02-14T02:03:26;100558.44;;;2.72;100.00
21545;BME280;10933;50.754;11.508;2024-02-14T02:05:53;100543.22;;;2.50;100.00
21545;BME280;10933;50.754;11.508;2024-02-14T02:08:20;100540.81;;;2.63;100.00
21545;BME280;10933;50.754;11.508;2024-02-14T02:10:46;100545.50;;;2.61;100.00
21545;BME280;10933;50.754;11.508;2024-02-14T02:13:13;100536.06;;;2.50;100.00
21545;BME280;10933;50.754;11.508;2024-02-14T02:15:41;100529.25;;;2.48;100.00
21545;BME280;10933;50.754;11.508;2024-02-14T02:18:10;100524.53;;;2.58;100.00
21545;BME280;10933;50.754;11.508;2024-02-14T02:20:37;100522.41;;;2.76;100.00
21545;BME280;10933;50.754;11.508;2024-02-14T02:23:04;100499.44;;;2.75;100.00
21545;BME280;10933;50.754;11.508;2024-02-14T02:25:31;100493.28;;;2.52;100.00
21545;BME280;10933;50.754;11.508;2024-02-14T02:27:57;100489.31;;;2.48;100.00
21545;BME280;10933;50.754;11.508;2024-02-14T02:30:23;100484.81;;;2.48;100.00
21545;BME280;10933;50.754;11.508;2024-02-14T02:32:53;100500.16;;;2.92;100.00
21545;BME280;10933;50.754;11.508;2024-02-14T02:35:19;100484.75;;;2.79;100.00
21545;BME280;10933;50.754;11.508;2024-02-14T02:37:50;100463.03;;;2.90;100.00
21545;BME280;10933;50.754;11.508;2024-02-14T02:40:17;100453.38;;;2.89;100.00
21545;BME280;10933;50.754;11.508;2024-02-14T02:42:43;100441.19;;;2.72;100.00
21545;BME280;10933;50.754;11.508;2024-02-14T02:45:11;100443.81;;;2.80;100.00
21545;BME280;10933;50.754;11.508;2024-02-14T02:47:37;100436.25;;;2.69;100.00
21545;BME280;10933;50.754;11.508;2024-02-14T02:50:04;100438.31;;;2.59;100.00
21545;BME280;10933;50.754;11.508;2024-02-14T02:52:30;100433.81;;;2.82;100.00
21545;BME280;10933;50.754;11.508;2024-02-14T02:54:59;100442.97;;;2.57;100.00
21545;BME280;10933;50.754;11.508;2024-02-14T02:57:29;100452.88;;;2.71;100.00
21545;BME280;10933;50.754;11.508;2024-02-14T02:59:58;100451.63;;;2.82;100.00
21545;BME280;10933;50.754;11.508;2024-02-14T03:02:24;100465.41;;;2.85;100.00
21545;BME280;10933;50.754;11.508;2024-02-14T03:04:51;100461.16;;;2.76;100.00
21545;BME280;10933;50.754;11.508;2024-02-14T03:07:19;100454.56;;;2.87;100.00
21545;BME280;10933;50.754;11.508;2024-02-14T03:09:46;100444.75;;;2.64;100.00
21545;BME280;10933;50.754;11.508;2024-02-14T03:12:12;100443.81;;;2.57;100.00
21545;BME280;10933;50.754;11.508;2024-02-14T03:14:42;100461.09;;;2.84;100.00
21545;BME280;10933;50.754;11.508;2024-02-14T03:17:09;100458.00;;;2.95;100.00
21545;BME280;10933;50.754;11.508;2024-02-14T03:19:36;100448.25;;;3.03;100.00
21545;BME280;10933;50.754;11.508;2024-02-14T03:22:04;100435.31;;;3.00;100.00
21545;BME280;10933;50.754;11.508;2024-02-14T03:24:31;100434.06;;;3.10;100.00
21545;BME280;10933;50.754;11.508;2024-02-14T03:27:01;100394.53;;;2.76;100.00
21545;BME280;10933;50.754;11.508;2024-02-14T03:29:27;100407.13;;;3.05;100.00
21545;BME280;10933;50.754;11.508;2024-02-14T03:31:53;100387.75;;;2.88;100.00
21545;BME280;10933;50.754;11.508;2024-02-14T03:34:19;100399.91;;;2.91;100.00
21545;BME280;10933;50.754;11.508;2024-02-14T03:36:47;100417.03;;;2.97;100.00
21545;BME280;10933;50.754;11.508;2024-02-14T03:39:13;100420.69;;;2.95;100.00
21545;BME280;10933;50.754;11.508;2024-02-14T03:41:39;100418.09;;;2.87;100.00
21545;BME280;10933;50.754;11.508;2024-02-14T03:44:05;100421.91;;;3.08;100.00
21545;BME280;10933;50.754;11.508;2024-02-14T03:46:34;100413.47;;;3.19;100.00
21545;BME280;10933;50.754;11.508;2024-02-14T03:49:01;100395.34;;;3.14;100.00
21545;BME280;10933;50.754;11.508;2024-02-14T03:51:27;100401.81;;;3.20;100.00
21545;BME280;10933;50.754;11.508;2024-02-14T03:53:53;100400.88;;;3.42;100.00
21545;BME280;10933;50.754;11.508;2024-02-14T03:56:19;100384.22;;;3.55;100.00
21545;BME280;10933;50.754;11.508;2024-02-14T03:58:45;100366.75;;;3.52;100.00
21545;BME280;10933;50.754;11.508;2024-02-14T04:01:12;100344.50;;;3.60;100.00
21545;BME280;10933;50.754;11.508;2024-02-14T04:03:38;100321.16;;;3.47;100.00
21545;BME280;10933;50.754;11.508;2024-02-14T04:06:04;100314.97;;;3.62;100.00
21545;BME280;10933;50.754;11.508;2024-02-14T04:08:31;100300.22;;;3.66;100.00
21545;BME280;10933;50.754;11.508;2024-02-14T04:10:57;100274.06;;;3.40;100.00
21545;BME280;10933;50.754;11.508;2024-02-14T04:13:23;100291.22;;;3.67;100.00
21545;BME280;10933;50.754;11.508;2024-02-14T04:15:49;100269.28;;;3.50;100.00
21545;BME280;10933;50.754;11.508;2024-02-14T04:18:15;100260.34;;;3.58;100.00
21545;BME280;10933;50.754;11.508;2024-02-14T04:20:44;100263.78;;;3.73;100.00
21545;BME280;10933;50.754;11.508;2024-02-14T04:23:12;100251.06;;;3.75;100.00
21545;BME280;10933;50.754;11.508;2024-02-14T04:25:38;100230.50;;;3.69;100.00
21545;BME280;10933;50.754;11.508;2024-02-14T04:28:04;100233.56;;;3.51;100.00
21545;BME280;10933;50.754;11.508;2024-02-14T04:30:31;100244.34;;;3.58;100.00
21545;BME280;10933;50.754;11.508;2024-02-14T04:32:57;100246.81;;;3.59;100.00
21545;BME280;10933;50.754;11.508;2024-02-14T04:35:23;100251.16;;;3.45;100.00
21545;BME280;10933;50.754;11.508;2024-02-14T04:37:49;100266.03;;;3.54;100.00
21545;BME280;10933;50.754;11.508;2024-02-14T04:40:16;100273.69;;;3.43;100.00
21545;BME280;10933;50.754;11.508;2024-02-14T04:42:42;100296.19;;;3.70;100.00
21545;BME280;10933;50.754;11.508;2024-02-14T04:45:08;100287.75;;;3.88;100.00
21545;BME280;10933;50.754;11.508;2024-02-14T04:47:34;100284.50;;;3.92;100.00
21545;BME280;10933;50.754;11.508;2024-02-14T04:50:00;100268.75;;;3.76;100.00
21545;BME280;10933;50.754;11.508;2024-02-14T04:52:29;100274.22;;;3.89;100.00
21545;BME280;10933;50.754;11.508;2024-02-14T04:54:56;100262.06;;;3.65;100.00
21545;BME280;10933;50.754;11.508;2024-02-14T04:57:22;100258.44;;;3.73;100.00
21545;BME280;10933;50.754;11.508;2024-02-14T04:59:48;100258.53;;;3.43;100.00
21545;BME280;10933;50.754;11.508;2024-02-14T05:02:15;100268.44;;;3.49;100.00
21545;BME280;10933;50.754;11.508;2024-02-14T05:04:41;100278.72;;;3.52;100.00
21545;BME280;10933;50.754;11.508;2024-02-14T05:07:07;100287.00;;;3.58;100.00
21545;BME280;10933;50.754;11.508;2024-02-14T05:09:34;100282.66;;;3.71;100.00
21545;BME280;10933;50.754;11.508;2024-02-14T05:12:00;100254.88;;;3.66;100.00
21545;BME280;10933;50.754;11.508;2024-02-14T05:14:26;100240.25;;;3.62;100.00
21545;BME280;10933;50.754;11.508;2024-02-14T05:16:56;100231.09;;;3.49;100.00
21545;BME280;10933;50.754;11.508;2024-02-14T05:19:22;100249.28;;;3.61;100.00
21545;BME280;10933;50.754;11.508;2024-02-14T05:21:48;100244.47;;;3.71;100.00
21545;BME280;10933;50.754;11.508;2024-02-14T05:24:14;100231.25;;;3.84;100.00
21545;BME280;10933;50.754;11.508;2024-02-14T05:26:41;100222.47;;;3.90;100.00
21545;BME280;10933;50.754;11.508;2024-02-14T05:29:07;100210.44;;;3.94;100.00
21545;BME280;10933;50.754;11.508;2024-02-14T05:31:44;100196.44;;;3.71;100.00
21545;BME280;10933;50.754;11.508;2024-02-14T05:34:11;100199.03;;;3.86;100.00
21545;BME280;10933;50.754;11.508;2024-02-14T05:36:37;100202.94;;;3.83;100.00
21545;BME280;10933;50.754;11.508;2024-02-14T05:39:04;100206.97;;;3.79;100.00
21545;BME280;10933;50.754;11.508;2024-02-14T05:41:32;100215.94;;;3.93;100.00
21545;BME280;10933;50.754;11.508;2024-02-14T05:43:59;100223.69;;;3.88;100.00
21545;BME280;10933;50.754;11.508;2024-02-14T05:46:25;100225.66;;;4.00;100.00
21545;BME280;10933;50.754;11.508;2024-02-14T05:48:51;100188.59;;;3.91;100.00
21545;BME280;10933;50.754;11.508;2024-02-14T05:51:20;100186.13;;;4.10;100.00
21545;BME280;10933;50.754;11.508;2024-02-14T05:53:46;100172.38;;;4.13;100.00
21545;BME280;10933;50.754;11.508;2024-02-14T05:56:12;100147.50;;;3.85;100.00
21545;BME280;10933;50.754;11.508;2024-02-14T05:58:38;100140.00;;;3.95;100.00
21545;BME280;10933;50.754;11.508;2024-02-14T06:01:04;100143.09;;;3.71;100.00
21545;BME280;10933;50.754;11.508;2024-02-14T06:03:32;100165.03;;;3.94;100.00
21545;BME280;10933;50.754;11.508;2024-02-14T06:05:58;100161.34;;;3.95;100.00
21545;BME280;10933;50.754;11.508;2024-02-14T06:08:24;100166.34;;;4.05;100.00
21545;BME280;10933;50.754;11.508;2024-02-14T06:10:50;100163.97;;;4.17;100.00
21545;BME280;10933;50.754;11.508;2024-02-14T06:13:16;100157.66;;;3.96;100.00
21545;BME280;10933;50.754;11.508;2024-02-14T06:15:42;100148.13;;;3.87;100.00
21545;BME280;10933;50.754;11.508;2024-02-14T06:18:08;100162.47;;;4.07;100.00
21545;BME280;10933;50.754;11.508;2024-02-14T06:20:35;100146.19;;;4.02;100.00
21545;BME280;10933;50.754;11.508;2024-02-14T06:23:02;100142.00;;;3.93;100.00
21545;BME280;10933;50.754;11.508;2024-02-14T06:25:28;100129.94;;;3.69;100.00
21545;BME280;10933;50.754;11.508;2024-02-14T06:27:54;100143.75;;;3.79;100.00
21545;BME280;10933;50.754;11.508;2024-02-14T06:30:20;100132.72;;;3.61;100.00
21545;BME280;10933;50.754;11.508;2024-02-14T06:32:46;100141.47;;;3.76;100.00
21545;BME280;10933;50.754;11.508;2024-02-14T06:35:12;100131.63;;;3.77;100.00
21545;BME280;10933;50.754;11.508;2024-02-14T06:37:40;100131.19;;;3.73;100.00
21545;BME280;10933;50.754;11.508;2024-02-14T06:40:07;100128.91;;;3.49;100.00
21545;BME280;10933;50.754;11.508;2024-02-14T06:42:34;100146.81;;;3.76;100.00
21545;BME280;10933;50.754;11.508;2024-02-14T06:45:00;100143.69;;;3.94;100.00
21545;BME280;10933;50.754;11.508;2024-02-14T06:47:26;100135.13;;;4.05;100.00
21545;BME280;10933;50.754;11.508;2024-02-14T06:49:56;100122.88;;;4.11;100.00
21545;BME280;10933;50.754;11.508;2024-02-14T06:52:22;100129.50;;;4.22;100.00
21545;BME280;10933;50.754;11.508;2024-02-14T06:54:48;100121.50;;;4.22;100.00
21545;BME280;10933;50.754;11.508;2024-02-14T06:57:14;100108.09;;;4.15;100.00
21545;BME280;10933;50.754;11.508;2024-02-14T06:59:41;100121.25;;;4.17;100.00
21545;BME280;10933;50.754;11.508;2024-02-14T07:02:07;100137.59;;;4.35;100.00
21545;BME280;10933;50.754;11.508;2024-02-14T07:04:33;100127.34;;;4.38;100.00
21545;BME280;10933;50.754;11.508;2024-02-14T07:06:59;100123.06;;;4.44;100.00
21545;BME280;10933;50.754;11.508;2024-02-14T07:09:26;100115.81;;;4.72;100.00
21545;BME280;10933;50.754;11.508;2024-02-14T07:11:52;100108.50;;;5.01;100.00
21545;BME280;10933;50.754;11.508;2024-02-14T07:14:24;100058.97;;;5.31;100.00
21545;BME280;10933;50.754;11.508;2024-02-14T07:16:50;100023.00;;;5.41;100.00
21545;BME280;10933;50.754;11.508;2024-02-14T07:19:16;99981.81;;;5.55;100.00
21545;BME280;10933;50.754;11.508;2024-02-14T07:21:43;99939.53;;;5.97;100.00
21545;BME280;10933;50.754;11.508;2024-02-14T07:24:09;99879.94;;;6.08;100.00
21545;BME280;10933;50.754;11.508;2024-02-14T07:26:36;99813.69;;;5.97;100.00
21545;BME280;10933;50.754;11.508;2024-02-14T07:29:02;99773.25;;;6.05;100.00
21545;BME280;10933;50.754;11.508;2024-02-14T07:31:29;99751.38;;;6.14;100.00
21545;BME280;10933;50.754;11.508;2024-02-14T07:34:00;99722.06;;;6.19;100.00
21545;BME280;10933;50.754;11.508;2024-02-14T07:36:29;99699.22;;;6.17;100.00
21545;BME280;10933;50.754;11.508;2024-02-14T07:38:55;99678.78;;;6.23;100.00
21545;BME280;10933;50.754;11.508;2024-02-14T07:41:21;99666.28;;;6.78;100.00
21545;BME280;10933;50.754;11.508;2024-02-14T07:43:47;99643.16;;;6.95;100.00
21545;BME280;10933;50.754;11.508;2024-02-14T07:46:18;99607.41;;;7.01;100.00
21545;BME280;10933;50.754;11.508;2024-02-14T07:48:45;99592.66;;;6.92;100.00
21545;BME280;10933;50.754;11.508;2024-02-14T07:51:12;99577.06;;;6.53;100.00
21545;BME280;10933;50.754;11.508;2024-02-14T07:53:38;99594.50;;;6.62;100.00
21545;BME280;10933;50.754;11.508;2024-02-14T07:56:04;99594.94;;;6.77;100.00
21545;BME280;10933;50.754;11.508;2024-02-14T07:58:30;99607.53;;;7.06;100.00
21545;BME280;10933;50.754;11.508;2024-02-14T08:00:56;99596.28;;;7.58;100.00
21545;BME280;10933;50.754;11.508;2024-02-14T08:03:22;99582.41;;;7.73;100.00
21545;BME280;10933;50.754;11.508;2024-02-14T08:05:50;99558.03;;;7.86;100.00
21545;BME280;10933;50.754;11.508;2024-02-14T08:08:17;99548.56;;;7.95;100.00
21545;BME280;10933;50.754;11.508;2024-02-14T08:10:43;99529.03;;;8.23;100.00
21545;BME280;10933;50.754;11.508;2024-02-14T08:13:09;99525.03;;;8.49;100.00
21545;BME280;10933;50.754;11.508;2024-02-14T08:15:37;99513.56;;;8.65;100.00
21545;BME280;10933;50.754;11.508;2024-02-14T08:18:03;99507.94;;;8.67;100.00
21545;BME280;10933;50.754;11.508;2024-02-14T08:20:29;99501.66;;;8.90;100.00
21545;BME280;10933;50.754;11.508;2024-02-14T08:22:55;99500.00;;;8.89;100.00
21545;BME280;10933;50.754;11.508;2024-02-14T08:25:21;99494.19;;;8.80;100.00
21545;BME280;10933;50.754;11.508;2024-02-14T08:27:47;99521.72;;;8.99;100.00
21545;BME280;10933;50.754;11.508;2024-02-14T08:30:13;99524.59;;;8.80;100.00
21545;BME280;10933;50.754;11.508;2024-02-14T08:32:40;99538.09;;;8.69;100.00
21545;BME280;10933;50.754;11.508;2024-02-14T08:35:07;99534.94;;;8.60;100.00
21545;BME280;10933;50.754;11.508;2024-02-14T08:37:33;99533.47;;;8.52;100.00
21545;BME280;10933;50.754;11.508;2024-02-14T08:40:02;99523.25;;;8.66;100.00
21545;BME280;10933;50.754;11.508;2024-02-14T08:42:32;99531.97;;;8.73;100.00
21545;BME280;10933;50.754;11.508;2024-02-14T08:44:58;99526.31;;;8.87;100.00
21545;BME280;10933;50.754;11.508;2024-02-14T08:47:24;99523.34;;;9.00;100.00
21545;BME280;10933;50.754;11.508;2024-02-14T08:49:52;99516.25;;;8.65;100.00
21545;BME280;10933;50.754;11.508;2024-02-14T08:52:18;99540.59;;;8.87;100.00
21545;BME280;10933;50.754;11.508;2024-02-14T08:54:44;99538.66;;;8.99;100.00
21545;BME280;10933;50.754;11.508;2024-02-14T08:57:10;99539.47;;;9.28;100.00
21545;BME280;10933;50.754;11.508;2024-02-14T08:59:36;99524.66;;;9.14;100.00
21545;BME280;10933;50.754;11.508;2024-02-14T09:02:03;99539.19;;;9.13;100.00
21545;BME280;10933;50.754;11.508;2024-02-14T09:04:29;99537.66;;;8.89;100.00
21545;BME280;10933;50.754;11.508;2024-02-14T09:06:55;99548.31;;;9.12;100.00
21545;BME280;10933;50.754;11.508;2024-02-14T09:09:21;99552.94;;;9.28;100.00
21545;BME280;10933;50.754;11.508;2024-02-14T09:11:48;99556.25;;;9.19;100.00
21545;BME280;10933;50.754;11.508;2024-02-14T09:14:14;99566.66;;;8.87;100.00
21545;BME280;10933;50.754;11.508;2024-02-14T09:16:40;99571.00;;;8.88;100.00
21545;BME280;10933;50.754;11.508;2024-02-14T09:19:06;99569.47;;;8.92;100.00
21545;BME280;10933;50.754;11.508;2024-02-14T09:21:34;99571.50;;;8.73;100.00
21545;BME280;10933;50.754;11.508;2024-02-14T09:24:02;99575.41;;;8.65;100.00
21545;BME280;10933;50.754;11.508;2024-02-14T09:26:29;99581.69;;;8.71;100.00
21545;BME280;10933;50.754;11.508;2024-02-14T09:28:55;99571.59;;;8.90;100.00
21545;BME280;10933;50.754;11.508;2024-02-14T09:31:22;99570.53;;;8.91;100.00
21545;BME280;10933;50.754;11.508;2024-02-14T09:33:48;99571.38;;;8.79;100.00
21545;BME280;10933;50.754;11.508;2024-02-14T09:36:15;99575.50;;;8.99;100.00
21545;BME280;10933;50.754;11.508;2024-02-14T09:38:42;99579.06;;;8.88;100.00
21545;BME280;10933;50.754;11.508;2024-02-14T09:41:36;99562.84;;;9.11;100.00
21545;BME280;10933;50.754;11.508;2024-02-14T09:44:04;99560.94;;;9.73;100.00
21545;BME280;10933;50.754;11.508;2024-02-14T09:46:30;99556.94;;;10.92;100.00
21545;BME280;10933;50.754;11.508;2024-02-14T09:48:58;99560.91;;;10.63;100.00
21545;BME280;10933;50.754;11.508;2024-02-14T09:51:25;99574.63;;;10.39;100.00
21545;BME280;10933;50.754;11.508;2024-02-14T09:53:53;99591.16;;;10.26;100.00
21545;BME280;10933;50.754;11.508;2024-02-14T09:56:20;99591.25;;;9.81;100.00
21545;BME280;10933;50.754;11.508;2024-02-14T09:58:49;99585.69;;;9.70;100.00
21545;BME280;10933;50.754;11.508;2024-02-14T10:01:24;99586.81;;;9.74;100.00
21545;BME280;10933;50.754;11.508;2024-02-14T10:03:51;99581.19;;;9.76;100.00
21545;BME280;10933;50.754;11.508;2024-02-14T10:06:18;99586.09;;;9.96;100.00
21545;BME280;10933;50.754;11.508;2024-02-14T10:08:48;99576.28;;;10.07;100.00
21545;BME280;10933;50.754;11.508;2024-02-14T10:11:14;99569.59;;;10.26;100.00
21545;BME280;10933;50.754;11.508;2024-02-14T10:13:43;99583.75;;;10.55;100.00
21545;BME280;10933;50.754;11.508;2024-02-14T10:16:11;99584.25;;;10.74;100.00
21545;BME280;10933;50.754;11.508;2024-02-14T10:18:38;99601.13;;;10.86;100.00
21545;BME280;10933;50.754;11.508;2024-02-14T10:21:05;99600.97;;;10.54;100.00
21545;BME280;10933;50.754;11.508;2024-02-14T10:23:31;99619.00;;;10.70;100.00
21545;BME280;10933;50.754;11.508;2024-02-14T10:25:58;99612.66;;;10.59;100.00
21545;BME280;10933;50.754;11.508;2024-02-14T10:28:25;99616.72;;;11.28;100.00
21545;BME280;10933;50.754;11.508;2024-02-14T10:30:51;99636.25;;;11.62;100.00
21545;BME280;10933;50.754;11.508;2024-02-14T10:33:20;99637.72;;;11.20;100.00
21545;BME280;10933;50.754;11.508;2024-02-14T10:35:48;99642.13;;;10.83;100.00
21545;BME280;10933;50.754;11.508;2024-02-14T10:38:16;99640.22;;;10.83;100.00
21545;BME280;10933;50.754;11.508;2024-02-14T10:40:46;99641.25;;;10.60;100.00
21545;BME280;10933;50.754;11.508;2024-02-14T10:43:12;99640.16;;;10.56;100.00
21545;BME280;10933;50.754;11.508;2024-02-14T10:45:40;99639.78;;;10.91;100.00
21545;BME280;10933;50.754;11.508;2024-02-14T10:48:09;99655.66;;;10.49;100.00
21545;BME280;10933;50.754;11.508;2024-02-14T10:50:41;99655.94;;;10.31;100.00
21545;BME280;10933;50.754;11.508;2024-02-14T10:53:13;99641.72;;;10.74;100.00
21545;BME280;10933;50.754;11.508;2024-02-14T10:55:42;99644.88;;;11.10;100.00
21545;BME280;10933;50.754;11.508;2024-02-14T10:58:10;99657.47;;;11.04;100.00
21545;BME280;10933;50.754;11.508;2024-02-14T11:00:38;99644.16;;;10.76;100.00
21545;BME280;10933;50.754;11.508;2024-02-14T11:03:04;99641.69;;;10.52;100.00
21545;BME280;10933;50.754;11.508;2024-02-14T11:05:31;99639.34;;;10.78;100.00
21545;BME280;10933;50.754;11.508;2024-02-14T11:08:08;99655.34;;;10.84;100.00
21545;BME280;10933;50.754;11.508;2024-02-14T11:10:38;99659.31;;;10.99;100.00
21545;BME280;10933;50.754;11.508;2024-02-14T11:13:04;99654.09;;;10.92;100.00
21545;BME280;10933;50.754;11.508;2024-02-14T11:15:36;99649.91;;;10.63;100.00
21545;BME280;10933;50.754;11.508;2024-02-14T11:18:06;99645.72;;;10.33;100.00
21545;BME280;10933;50.754;11.508;2024-02-14T11:20:35;99641.31;;;10.10;100.00
21545;BME280;10933;50.754;11.508;2024-02-14T11:23:06;99632.81;;;10.35;100.00
21545;BME280;10933;50.754;11.508;2024-02-14T11:25:34;99636.72;;;10.27;100.00
21545;BME280;10933;50.754;11.508;2024-02-14T11:28:01;99625.03;;;10.39;100.00
21545;BME280;10933;50.754;11.508;2024-02-14T11:30:40;99621.97;;;10.30;100.00
21545;BME280;10933;50.754;11.508;2024-02-14T11:33:21;99621.22;;;10.18;100.00
21545;BME280;10933;50.754;11.508;2024-02-14T11:35:52;99627.91;;;10.32;100.00
21545;BME280;10933;50.754;11.508;2024-02-14T11:38:20;99628.75;;;10.32;100.00
21545;BME280;10933;50.754;11.508;2024-02-14T11:40:46;99622.09;;;10.40;100.00
21545;BME280;10933;50.754;11.508;2024-02-14T11:43:14;99626.75;;;10.28;100.00
21545;BME280;10933;50.754;11.508;2024-02-14T11:45:42;99623.59;;;10.70;100.00
21545;BME280;10933;50.754;11.508;2024-02-14T11:48:13;99624.94;;;10.50;100.00
21545;BME280;10933;50.754;11.508;2024-02-14T11:50:40;99619.84;;;10.71;100.00
21545;BME280;10933;50.754;11.508;2024-02-14T11:53:11;99625.59;;;10.41;100.00
21545;BME280;10933;50.754;11.508;2024-02-14T11:55:40;99621.19;;;10.51;100.00
21545;BME280;10933;50.754;11.508;2024-02-14T11:58:17;99622.91;;;10.41;100.00
21545;BME280;10933;50.754;11.508;2024-02-14T12:00:46;99623.97;;;10.56;100.00
21545;BME280;10933;50.754;11.508;2024-02-14T12:03:18;99608.78;;;10.34;100.00
21545;BME280;10933;50.754;11.508;2024-02-14T12:05:47;99617.31;;;10.86;100.00
21545;BME280;10933;50.754;11.508;2024-02-14T12:08:14;99621.81;;;10.58;100.00
21545;BME280;10933;50.754;11.508;2024-02-14T12:10:43;99627.72;;;10.55;100.00
21545;BME280;10933;50.754;11.508;2024-02-14T12:13:15;99630.28;;;10.45;100.00
21545;BME280;10933;50.754;11.508;2024-02-14T12:15:45;99636.75;;;10.66;100.00
21545;BME280;10933;50.754;11.508;2024-02-14T12:18:12;99630.47;;;10.60;100.00
21545;BME280;10933;50.754;11.508;2024-02-14T12:20:38;99634.75;;;10.40;100.00
21545;BME280;10933;50.754;11.508;2024-02-14T12:23:05;99619.09;;;10.20;100.00
21545;BME280;10933;50.754;11.508;2024-02-14T12:25:32;99630.06;;;10.30;100.00
21545;BME280;10933;50.754;11.508;2024-02-14T12:27:58;99625.69;;;10.29;100.00
21545;BME280;10933;50.754;11.508;2024-02-14T12:30:47;99627.06;;;10.48;100.00
21545;BME280;10933;50.754;11.508;2024-02-14T12:33:23;99623.31;;;10.49;100.00
21545;BME280;10933;50.754;11.508;2024-02-14T12:35:51;99624.66;;;10.30;100.00
21545;BME280;10933;50.754;11.508;2024-02-14T12:38:18;99628.06;;;10.42;100.00
21545;BME280;10933;50.754;11.508;2024-02-14T12:40:45;99625.09;;;10.60;100.00
21545;BME280;10933;50.754;11.508;2024-02-14T12:43:13;99624.78;;;10.79;100.00